createdAt,value
2023-04-11T00:01:30.063Z,32.03
2023-04-11T00:03:57.379Z,30.10
2023-04-11T00:06:26.205Z,28.73
2023-04-11T00:08:53.732Z,27.70
2023-04-11T00:11:21.182Z,26.03
2023-04-11T00:13:48.758Z,25.70
2023-04-11T00:16:16.952Z,25.43
2023-04-11T00:18:45.002Z,24.27
2023-04-11T00:21:12.257Z,25.07
2023-04-11T00:23:41.598Z,25.33
2023-04-11T00:26:08.954Z,24.53
2023-04-11T00:28:38.896Z,24.73
2023-04-11T00:31:07.062Z,24.57
2023-04-11T00:33:34.151Z,25.07
2023-04-11T00:36:01.240Z,24.40
2023-04-11T00:38:28.266Z,24.33
2023-04-11T00:40:55.491Z,25.20
2023-04-11T00:43:22.478Z,24.10
2023-04-11T00:45:52.596Z,23.67
2023-04-11T00:48:20.169Z,22.07
2023-04-11T00:50:47.213Z,22.47
2023-04-11T00:53:14.977Z,24.70
2023-04-11T00:55:42.198Z,27.37
2023-04-11T00:58:09.555Z,27.00
2023-04-11T01:00:38.833Z,22.93
2023-04-11T01:03:06.942Z,21.93
2023-04-11T01:05:35.085Z,22.00
2023-04-11T01:08:03.440Z,21.77
2023-04-11T01:10:33.033Z,21.50
2023-04-11T01:13:01.220Z,21.30
2023-04-11T01:15:28.659Z,21.03
2023-04-11T01:17:57.983Z,20.57
2023-04-11T01:20:26.538Z,23.57
2023-04-11T01:22:56.198Z,23.40
2023-04-11T01:25:25.042Z,23.30
2023-04-11T01:27:52.416Z,22.87
2023-04-11T01:30:19.425Z,21.40
2023-04-11T01:32:48.114Z,21.80
2023-04-11T01:35:16.968Z,19.77
2023-04-11T01:37:45.553Z,18.67
2023-04-11T01:40:16.896Z,22.40
2023-04-11T01:42:45.415Z,21.57
2023-04-11T01:45:13.273Z,22.67
2023-04-11T01:47:41.114Z,22.70
2023-04-11T01:50:08.621Z,24.20
2023-04-11T01:52:35.639Z,24.23
2023-04-11T01:55:03.319Z,23.87
2023-04-11T01:57:31.307Z,25.00
2023-04-11T02:00:01.668Z,26.03
2023-04-11T02:02:32.777Z,25.23
2023-04-11T02:05:00.129Z,25.57
2023-04-11T02:07:27.931Z,26.00
2023-04-11T02:09:56.773Z,26.37
2023-04-11T02:12:23.829Z,26.47
2023-04-11T02:14:50.981Z,25.10
2023-04-11T02:17:18.639Z,26.40
2023-04-11T02:19:46.143Z,26.27
2023-04-11T02:22:16.552Z,26.47
2023-04-11T02:24:43.599Z,26.50
2023-04-11T02:27:11.424Z,26.37
2023-04-11T02:29:38.641Z,27.17
2023-04-11T02:32:06.117Z,27.37
2023-04-11T02:34:33.333Z,27.60
2023-04-11T02:37:01.487Z,28.73
2023-04-11T02:39:28.995Z,29.73
2023-04-11T02:41:57.372Z,28.07
2023-04-11T02:44:26.386Z,27.53
2023-04-11T02:46:56.138Z,26.63
2023-04-11T02:49:23.826Z,20.03
2023-04-11T02:51:50.950Z,20.57
2023-04-11T02:54:18.299Z,21.87
2023-04-11T02:56:46.093Z,19.80
2023-04-11T02:59:13.455Z,20.00
2023-04-11T03:01:41.173Z,18.10
2023-04-11T03:04:08.862Z,21.27
2023-04-11T03:06:56.799Z,24.53
2023-04-11T03:09:23.879Z,23.47
2023-04-11T03:11:51.236Z,25.23
2023-04-11T03:14:18.545Z,24.17
2023-04-11T03:16:45.681Z,24.40
2023-04-11T03:19:12.842Z,37.07
2023-04-11T03:21:39.816Z,32.40
2023-04-11T03:24:07.642Z,21.70
2023-04-11T03:26:34.709Z,26.03
2023-04-11T03:29:09.385Z,22.97
2023-04-11T03:31:46.111Z,22.67
2023-04-11T03:34:14.135Z,26.50
2023-04-11T03:36:42.160Z,24.70
2023-04-11T03:39:09.370Z,24.23
2023-04-11T03:41:36.618Z,23.03
2023-04-11T03:44:05.010Z,24.00
2023-04-11T03:46:32.268Z,25.13
2023-04-11T03:48:59.555Z,24.03
2023-04-11T03:51:27.192Z,24.13
2023-04-11T03:54:02.230Z,22.10
2023-04-11T03:56:34.110Z,21.20
2023-04-11T03:59:01.670Z,21.63
2023-04-11T04:01:38.219Z,20.63
2023-04-11T04:04:07.701Z,21.13
2023-04-11T04:06:38.828Z,20.80
2023-04-11T04:09:07.286Z,21.10
2023-04-11T04:11:46.377Z,20.83
2023-04-11T04:14:14.606Z,21.30
2023-04-11T04:16:41.899Z,21.70
2023-04-11T04:19:09.743Z,21.70
2023-04-11T04:21:38.819Z,20.37
2023-04-11T04:24:06.221Z,21.03
2023-04-11T04:26:52.369Z,17.83
2023-04-11T04:29:46.177Z,18.40
2023-04-11T04:32:22.728Z,19.07
2023-04-11T04:34:56.245Z,17.97
2023-04-11T04:37:28.150Z,18.60
2023-04-11T04:40:16.025Z,19.03
2023-04-11T04:42:58.860Z,20.57
2023-04-11T04:45:52.034Z,19.60
2023-04-11T04:48:26.917Z,18.30
2023-04-11T04:50:54.029Z,19.20
2023-04-11T04:53:21.282Z,20.50
2023-04-11T04:55:56.725Z,21.73
2023-04-11T04:58:25.565Z,22.70
2023-04-11T05:00:56.159Z,20.47
2023-04-11T05:03:27.922Z,20.23
2023-04-11T05:05:56.916Z,20.50
2023-04-11T05:08:24.741Z,18.77
2023-04-11T05:10:55.024Z,18.70
2023-04-11T05:13:22.254Z,19.10
2023-04-11T05:15:50.108Z,19.63
2023-04-11T05:18:18.112Z,20.17
2023-04-11T05:20:45.577Z,19.97
2023-04-11T05:23:17.699Z,19.00
2023-04-11T05:25:44.834Z,16.43
2023-04-11T05:28:13.826Z,16.30
2023-04-11T05:30:42.056Z,14.70
2023-04-11T05:33:09.852Z,14.27
2023-04-11T05:35:36.987Z,14.03
2023-04-11T05:38:04.304Z,14.32
2023-04-11T05:40:31.294Z,13.60
2023-04-11T05:42:58.481Z,14.05
2023-04-11T05:45:26.677Z,14.20
2023-04-11T05:47:53.953Z,14.70
2023-04-11T05:50:21.027Z,14.85
2023-04-11T05:52:48.062Z,15.18
2023-04-11T05:55:15.169Z,15.50
2023-04-11T05:57:42.230Z,14.07
2023-04-11T06:00:14.294Z,14.32
2023-04-11T06:02:43.101Z,14.02
2023-04-11T06:05:12.043Z,14.80
2023-04-11T06:07:40.077Z,16.20
2023-04-11T06:10:08.256Z,16.15
2023-04-11T06:12:35.855Z,15.75
2023-04-11T06:15:04.023Z,15.15
2023-04-11T06:17:31.262Z,15.88
2023-04-11T06:19:58.800Z,16.30
2023-04-11T06:22:25.996Z,16.35
2023-04-11T06:24:53.145Z,16.33
2023-04-11T06:27:20.430Z,15.73
2023-04-11T06:29:47.624Z,15.68
2023-04-11T06:32:14.756Z,16.40
2023-04-11T06:34:42.018Z,15.70
2023-04-11T06:37:09.978Z,16.05
2023-04-11T06:39:37.218Z,15.65
2023-04-11T06:42:07.152Z,15.07
2023-04-11T06:44:35.253Z,14.45
2023-04-11T06:47:03.309Z,16.00
2023-04-11T06:49:30.497Z,15.18
2023-04-11T06:51:57.605Z,15.75
2023-04-11T06:54:24.806Z,15.85
2023-04-11T06:56:52.134Z,14.88
2023-04-11T06:59:20.517Z,15.55
2023-04-11T07:01:48.852Z,15.50
2023-04-11T07:04:16.529Z,15.52
2023-04-11T07:06:43.874Z,14.65
2023-04-11T07:09:12.671Z,14.80
2023-04-11T07:11:39.968Z,15.30
2023-04-11T07:14:07.800Z,15.15
2023-04-11T07:16:35.051Z,16.10
2023-04-11T07:19:03.300Z,16.23
2023-04-11T07:21:33.484Z,15.57
2023-04-11T07:24:01.083Z,15.35
2023-04-11T07:26:32.501Z,15.40
2023-04-11T07:28:59.916Z,15.95
2023-04-11T07:31:27.466Z,16.33
2023-04-11T07:33:54.941Z,17.33
2023-04-11T07:36:22.363Z,17.52
2023-04-11T07:38:49.419Z,17.42
2023-04-11T07:41:16.785Z,17.73
2023-04-11T07:43:44.043Z,17.20
2023-04-11T07:46:12.517Z,17.17
2023-04-11T07:48:39.860Z,18.40
2023-04-11T07:51:07.025Z,18.58
2023-04-11T07:53:34.067Z,17.40
2023-04-11T07:56:01.631Z,17.65
2023-04-11T07:58:28.871Z,18.52
2023-04-11T08:00:56.347Z,19.48
2023-04-11T08:03:24.012Z,20.98
2023-04-11T08:05:52.325Z,19.15
2023-04-11T08:08:19.584Z,18.83
2023-04-11T08:10:46.867Z,18.83
2023-04-11T08:13:14.046Z,18.90
2023-04-11T08:15:41.296Z,19.50
2023-04-11T08:18:11.731Z,19.65
2023-04-11T08:20:40.902Z,19.80
2023-04-11T08:23:09.608Z,19.77
2023-04-11T08:25:36.938Z,19.73
2023-04-11T08:28:05.258Z,18.70
2023-04-11T08:30:32.489Z,17.35
2023-04-11T08:32:59.731Z,16.73
2023-04-11T08:35:27.046Z,15.40
2023-04-11T08:37:54.619Z,13.02
2023-04-11T08:40:21.995Z,12.93
2023-04-11T08:42:49.422Z,13.05
2023-04-11T08:45:16.676Z,12.63
2023-04-11T08:47:45.568Z,12.88
2023-04-11T08:50:13.113Z,12.48
2023-04-11T08:52:42.867Z,12.27
2023-04-11T08:55:11.144Z,11.50
2023-04-11T08:57:38.305Z,12.20
2023-04-11T09:00:19.174Z,10.90
2023-04-11T09:02:56.326Z,11.18
2023-04-11T09:05:33.840Z,10.63
2023-04-11T09:08:03.930Z,10.25
2023-04-11T09:10:31.102Z,10.68
2023-04-11T09:12:58.876Z,9.95
2023-04-11T09:15:28.429Z,10.00
2023-04-11T09:17:58.849Z,10.40
2023-04-11T09:20:29.566Z,10.88
2023-04-11T09:22:59.031Z,10.05
2023-04-11T09:25:26.459Z,9.75
2023-04-11T09:28:10.450Z,10.35
2023-04-11T09:30:37.884Z,10.68
2023-04-11T09:33:25.541Z,11.27
2023-04-11T09:35:54.079Z,9.93
2023-04-11T09:38:35.290Z,10.35
2023-04-11T09:41:04.762Z,7.80
2023-04-11T09:43:58.264Z,7.32
2023-04-11T09:46:25.962Z,5.80
2023-04-11T09:48:55.029Z,5.35
2023-04-11T09:51:35.046Z,5.13
2023-04-11T09:54:05.543Z,5.28
2023-04-11T09:56:36.469Z,5.30
2023-04-11T09:59:05.046Z,5.65
2023-04-11T10:01:32.898Z,5.63
2023-04-11T10:04:01.513Z,5.20
2023-04-11T10:06:38.965Z,5.78
2023-04-11T10:09:11.825Z,5.57
2023-04-11T10:11:45.971Z,6.03
2023-04-11T10:14:40.035Z,5.78
2023-04-11T10:17:14.567Z,5.60
2023-04-11T10:19:43.878Z,5.80
2023-04-11T10:22:11.833Z,5.93
2023-04-11T10:24:39.008Z,5.47
2023-04-11T10:27:07.640Z,5.80
2023-04-11T10:29:44.045Z,5.32
2023-04-11T10:32:17.769Z,6.30
2023-04-11T10:34:51.192Z,6.85
2023-04-11T10:37:19.712Z,7.28
2023-04-11T10:39:55.904Z,5.88
2023-04-11T10:42:32.984Z,6.30
2023-04-11T10:45:19.342Z,5.75
2023-04-11T10:48:03.574Z,6.03
2023-04-11T10:50:30.963Z,5.75
2023-04-11T10:52:59.038Z,5.65
2023-04-11T10:55:27.631Z,5.47
2023-04-11T10:58:10.768Z,6.10
2023-04-11T11:00:47.627Z,5.28
2023-04-11T11:03:16.667Z,5.90
2023-04-11T11:05:43.995Z,5.20
2023-04-11T11:08:11.617Z,5.15
2023-04-11T11:10:40.511Z,5.55
2023-04-11T11:13:08.249Z,5.10
2023-04-11T11:15:39.852Z,4.70
2023-04-11T11:18:10.642Z,5.43
2023-04-11T11:20:38.166Z,5.00
2023-04-11T11:23:07.845Z,4.90
2023-04-11T11:25:35.250Z,5.30
2023-04-11T11:28:06.942Z,5.07
2023-04-11T11:30:38.917Z,4.97
2023-04-11T11:33:20.117Z,4.78
2023-04-11T11:36:03.651Z,4.93
2023-04-11T11:38:31.507Z,4.57
2023-04-11T11:40:59.568Z,4.80
2023-04-11T11:43:29.961Z,4.90
2023-04-11T11:46:12.168Z,4.90
2023-04-11T11:48:39.518Z,4.60
2023-04-11T11:51:07.216Z,4.70
2023-04-11T11:53:34.506Z,4.90
2023-04-11T11:56:12.531Z,4.68
2023-04-11T11:58:44.190Z,5.10
2023-04-11T12:03:51.751Z,5.05
2023-04-11T12:06:20.740Z,5.30
2023-04-11T12:08:53.965Z,5.10
2023-04-11T12:11:21.212Z,5.05
2023-04-11T12:13:53.275Z,5.03
2023-04-11T12:16:22.950Z,4.78
2023-04-11T12:18:51.398Z,5.15
2023-04-11T12:21:18.494Z,4.95
2023-04-11T12:23:45.448Z,5.18
2023-04-11T12:26:12.516Z,4.82
2023-04-11T12:28:39.672Z,4.80
2023-04-11T12:31:07.114Z,4.95
2023-04-11T12:33:34.460Z,4.90
2023-04-11T12:36:01.995Z,4.90
2023-04-11T12:38:29.078Z,4.82
2023-04-11T12:41:13.893Z,4.70
2023-04-11T12:43:43.328Z,5.00
2023-04-11T12:46:11.679Z,4.60
2023-04-11T12:48:38.739Z,4.90
2023-04-11T12:51:06.456Z,4.70
2023-04-11T12:53:33.549Z,4.93
2023-04-11T12:56:00.900Z,5.03
2023-04-11T12:58:28.898Z,5.10
2023-04-11T13:00:56.136Z,4.68
2023-04-11T13:03:23.633Z,4.72
2023-04-11T13:05:51.255Z,5.10
2023-04-11T13:08:18.397Z,4.80
2023-04-11T13:10:45.388Z,5.10
2023-04-11T13:15:44.305Z,4.95
2023-04-11T13:18:11.492Z,4.85
2023-04-11T13:20:38.505Z,4.93
2023-04-11T13:23:05.616Z,4.72
2023-04-11T13:25:32.661Z,4.50
2023-04-11T13:27:59.702Z,4.82
2023-04-11T13:30:27.038Z,4.90
2023-04-11T13:32:54.251Z,4.95
2023-04-11T13:35:21.209Z,4.70
2023-04-11T13:37:50.064Z,5.40
2023-04-11T13:40:17.274Z,5.13
2023-04-11T13:42:44.358Z,4.25
2023-04-11T13:45:11.926Z,4.80
2023-04-11T13:47:39.278Z,4.50
2023-04-11T13:50:08.978Z,5.40
2023-04-11T13:52:36.144Z,5.13
2023-04-11T13:55:03.624Z,4.85
2023-04-11T13:57:30.983Z,5.20
2023-04-11T13:59:58.128Z,4.88
2023-04-11T14:02:25.360Z,5.15
2023-04-11T14:04:53.604Z,5.20
2023-04-11T14:07:20.722Z,5.18
2023-04-11T14:09:47.691Z,5.22
2023-04-11T14:12:14.758Z,5.35
2023-04-11T14:14:41.799Z,4.93
2023-04-11T14:17:09.188Z,5.07
2023-04-11T14:19:36.403Z,5.20
2023-04-11T14:22:03.623Z,5.13
2023-04-11T14:24:31.027Z,4.70
2023-04-11T14:26:58.163Z,5.30
2023-04-11T14:29:26.423Z,4.70
2023-04-11T14:31:53.574Z,4.97
2023-04-11T14:34:21.129Z,5.00
2023-04-11T14:36:48.392Z,4.97
2023-04-11T14:39:15.543Z,4.93
2023-04-11T14:41:42.538Z,5.03
2023-04-11T14:44:09.779Z,4.75
2023-04-11T14:46:36.952Z,4.82
2023-04-11T14:49:04.620Z,5.10
2023-04-11T14:51:31.760Z,5.00
2023-04-11T14:53:59.995Z,5.10
2023-04-11T14:56:27.131Z,4.93
2023-04-11T14:58:54.929Z,4.78
2023-04-11T15:01:22.225Z,5.00
2023-04-11T15:03:49.656Z,5.35
2023-04-11T15:06:17.194Z,4.97
2023-04-11T15:08:44.271Z,4.78
2023-04-11T15:11:11.427Z,5.07
2023-04-11T15:13:38.730Z,5.07
2023-04-11T15:16:06.658Z,4.80
2023-04-11T15:18:34.018Z,5.00
2023-04-11T15:21:03.363Z,5.22
2023-04-11T15:23:31.120Z,5.03
2023-04-11T15:26:03.141Z,5.32
2023-04-11T15:28:35.948Z,5.43
2023-04-11T15:31:04.222Z,5.72
2023-04-11T15:33:32.036Z,5.68
2023-04-11T15:36:00.842Z,6.03
2023-04-11T15:38:29.115Z,6.07
2023-04-11T15:40:58.605Z,6.43
2023-04-11T15:43:26.140Z,6.57
2023-04-11T15:45:53.633Z,5.95
2023-04-11T15:48:20.724Z,7.95
2023-04-11T15:50:47.763Z,9.55
2023-04-11T15:53:15.087Z,9.52
2023-04-11T15:55:43.711Z,9.10
2023-04-11T15:58:11.040Z,10.05
2023-04-11T16:00:39.553Z,10.18
2023-04-11T16:03:08.409Z,10.77
2023-04-11T16:05:41.028Z,11.60
2023-04-11T16:08:08.631Z,12.18
2023-04-11T16:10:36.159Z,12.32
2023-04-11T16:13:03.494Z,12.77
2023-04-11T16:15:30.824Z,13.25
2023-04-11T16:17:58.028Z,14.50
2023-04-11T16:20:25.785Z,15.65
2023-04-11T16:22:52.763Z,15.30
2023-04-11T16:25:21.669Z,14.95
2023-04-11T16:27:50.915Z,11.02
2023-04-11T16:30:18.157Z,8.55
2023-04-11T16:32:45.194Z,8.27
2023-04-11T16:35:12.404Z,7.80
2023-04-11T16:37:39.587Z,6.18
2023-04-11T16:40:11.532Z,6.43
2023-04-11T16:42:39.784Z,6.18
2023-04-11T16:45:08.272Z,6.35
2023-04-11T16:47:35.663Z,6.03
2023-04-11T16:50:04.113Z,6.05
2023-04-11T16:52:34.271Z,6.18
2023-04-11T16:55:01.781Z,6.60
2023-04-11T16:57:28.913Z,7.47
2023-04-11T16:59:55.921Z,8.80
2023-04-11T17:02:23.085Z,7.75
2023-04-11T17:04:50.238Z,8.10
2023-04-11T17:07:17.818Z,8.07
2023-04-11T17:09:49.346Z,7.93
2023-04-11T17:12:17.377Z,8.50
2023-04-11T17:14:45.751Z,9.23
2023-04-11T17:17:12.786Z,8.52
2023-04-11T17:19:40.089Z,9.88
2023-04-11T17:22:07.207Z,9.43
2023-04-11T17:24:34.387Z,8.30
2023-04-11T17:27:01.871Z,8.48
2023-04-11T17:29:29.169Z,6.15
2023-04-11T17:31:56.829Z,5.90
2023-04-11T17:34:24.125Z,5.28
2023-04-11T17:36:51.516Z,4.85
2023-04-11T17:39:18.799Z,4.70
2023-04-11T17:41:46.227Z,3.92
2023-04-11T17:44:13.791Z,4.53
2023-04-11T17:46:41.287Z,5.35
2023-04-11T17:49:08.417Z,5.30
2023-04-11T17:51:38.859Z,5.72
2023-04-11T17:55:06.495Z,5.47
2023-04-11T17:57:55.310Z,6.38
2023-04-11T18:00:23.553Z,6.63
2023-04-11T18:02:54.848Z,7.85
2023-04-11T18:05:26.120Z,7.68
2023-04-11T18:07:56.673Z,6.82
2023-04-11T18:10:25.938Z,7.63
2023-04-11T18:12:54.559Z,7.32
2023-04-11T18:15:22.753Z,8.45
2023-04-11T18:17:51.661Z,7.32
2023-04-11T18:20:19.111Z,7.88
2023-04-11T18:22:57.704Z,8.02
2023-04-11T18:25:24.939Z,8.05
2023-04-11T18:27:52.102Z,8.20
2023-04-11T18:30:19.313Z,7.93
2023-04-11T18:32:49.429Z,7.43
2023-04-11T18:35:19.331Z,7.60
2023-04-11T18:37:46.820Z,7.75
2023-04-11T18:40:14.481Z,8.27
2023-04-11T18:42:45.176Z,7.25
2023-04-11T18:45:13.725Z,8.32
2023-04-11T18:47:47.849Z,8.43
2023-04-11T18:50:15.990Z,7.75
2023-04-11T18:52:44.853Z,7.50
2023-04-11T18:55:12.662Z,6.28
2023-04-11T18:57:39.977Z,6.97
2023-04-11T19:00:26.193Z,5.75
2023-04-11T19:02:54.001Z,6.80
2023-04-11T19:05:21.719Z,6.35
2023-04-11T19:07:49.092Z,6.43
2023-04-11T19:10:16.218Z,7.22
2023-04-11T19:12:43.317Z,8.00
2023-04-11T19:15:11.222Z,7.50
2023-04-11T19:17:39.309Z,7.72
2023-04-11T19:20:07.338Z,8.13
2023-04-11T19:22:36.330Z,8.38
2023-04-11T19:25:03.732Z,9.18
2023-04-11T19:27:30.807Z,9.93
2023-04-11T19:29:57.933Z,9.35
2023-04-11T19:32:25.196Z,8.20
2023-04-11T19:34:52.396Z,8.38
2023-04-11T19:37:20.045Z,8.60
2023-04-11T19:39:47.140Z,9.02
2023-04-11T19:42:14.282Z,9.43
2023-04-11T19:44:41.316Z,8.65
2023-04-11T19:47:08.336Z,7.53
2023-04-11T19:49:35.723Z,8.32
2023-04-11T19:52:02.898Z,7.10
2023-04-11T19:54:30.971Z,7.82
2023-04-11T19:56:58.316Z,8.20
2023-04-11T19:59:25.625Z,7.43
2023-04-11T20:01:54.274Z,7.07
2023-04-11T20:04:22.540Z,8.10
2023-04-11T20:06:50.981Z,8.65
2023-04-11T20:09:18.225Z,8.65
2023-04-11T20:11:47.778Z,8.68
2023-04-11T20:14:14.850Z,7.70
2023-04-11T20:16:42.054Z,8.88
2023-04-11T20:19:09.417Z,8.90
2023-04-11T20:21:36.581Z,8.88
2023-04-11T20:24:03.828Z,9.10
2023-04-11T20:26:30.939Z,9.07
2023-04-11T20:29:00.717Z,9.05
2023-04-11T20:31:27.815Z,8.43
2023-04-11T20:33:55.035Z,8.68
2023-04-11T20:36:22.568Z,8.65
2023-04-11T20:38:49.976Z,8.18
2023-04-11T20:41:19.256Z,8.02
2023-04-11T20:43:46.341Z,8.23
2023-04-11T20:46:13.878Z,8.30
2023-04-11T20:48:42.715Z,8.52
2023-04-11T20:51:10.022Z,8.38
2023-04-11T20:53:37.206Z,8.43
2023-04-11T20:56:04.593Z,8.48
2023-04-11T20:58:31.631Z,9.18
2023-04-11T21:00:59.383Z,9.18
2023-04-11T21:03:30.357Z,9.48
2023-04-11T21:05:57.623Z,10.23
2023-04-11T21:08:24.732Z,9.75
2023-04-11T21:10:51.790Z,9.80
2023-04-11T21:13:18.817Z,10.82
2023-04-11T21:15:46.301Z,9.88
2023-04-11T21:18:13.873Z,10.27
2023-04-11T21:20:41.291Z,10.48
2023-04-11T21:23:08.382Z,9.90
2023-04-11T21:25:37.124Z,9.50
2023-04-11T21:28:04.197Z,9.82
2023-04-11T21:30:31.356Z,9.30
2023-04-11T21:32:58.500Z,8.77
2023-04-11T21:35:26.205Z,8.82
2023-04-11T21:37:53.300Z,8.85
2023-04-11T21:40:20.498Z,9.90
2023-04-11T21:42:47.555Z,11.00
2023-04-11T21:45:14.998Z,11.75
2023-04-11T21:47:42.047Z,13.02
2023-04-11T21:50:09.724Z,13.60
2023-04-11T21:52:36.704Z,13.25
2023-04-11T21:55:06.450Z,14.00
2023-04-11T21:57:35.400Z,14.93
2023-04-11T22:00:02.597Z,15.10
2023-04-11T22:02:39.213Z,14.77
2023-04-11T22:05:08.840Z,15.68
2023-04-11T22:07:48.691Z,15.60
2023-04-11T22:10:23.800Z,17.60
2023-04-11T22:12:54.066Z,17.40
2023-04-11T22:15:21.487Z,17.40
2023-04-11T22:17:51.201Z,19.05
2023-04-11T22:20:18.751Z,18.13
2023-04-11T22:22:45.730Z,18.20
2023-04-11T22:25:13.698Z,17.00
2023-04-11T22:27:40.704Z,18.23
2023-04-11T22:30:08.915Z,20.02
2023-04-11T22:32:37.096Z,20.67
2023-04-11T22:35:05.174Z,19.95
2023-04-11T22:37:32.454Z,20.80
2023-04-11T22:39:59.679Z,19.80
2023-04-11T22:42:26.882Z,23.42
2023-04-11T22:44:54.029Z,22.10
2023-04-11T22:47:21.946Z,23.75
2023-04-11T22:49:50.366Z,23.95
2023-04-11T22:52:22.730Z,25.80
2023-04-11T22:54:49.812Z,26.38
2023-04-11T22:57:16.843Z,25.95
2023-04-11T22:59:43.861Z,26.75
2023-04-11T23:02:11.012Z,27.52
2023-04-11T23:04:38.073Z,29.15
2023-04-11T23:07:05.385Z,27.05
2023-04-11T23:09:32.548Z,28.08
2023-04-11T23:11:59.658Z,28.48
2023-04-11T23:14:31.338Z,27.52
2023-04-11T23:16:58.595Z,28.80
2023-04-11T23:19:27.317Z,31.58
2023-04-11T23:21:54.706Z,29.38
2023-04-11T23:24:22.073Z,29.42
2023-04-11T23:26:49.227Z,29.30
2023-04-11T23:29:16.281Z,30.48
2023-04-11T23:31:43.405Z,30.00
2023-04-11T23:34:10.392Z,30.60
2023-04-11T23:36:37.786Z,30.80
2023-04-11T23:39:05.478Z,30.13
2023-04-11T23:41:32.663Z,29.67
2023-04-11T23:43:59.910Z,28.15
2023-04-11T23:46:27.614Z,29.08
2023-04-11T23:48:54.916Z,28.27
2023-04-11T23:51:22.469Z,29.42
2023-04-11T23:53:49.989Z,27.75
2023-04-11T23:56:17.390Z,27.90
2023-04-11T23:58:44.490Z,27.80
